createdAt,value
2023-02-22T00:00:42.002Z,21.50
2023-02-22T00:05:46.710Z,22.65
2023-02-22T00:10:48.584Z,21.52
2023-02-22T00:15:50.526Z,23.95
2023-02-22T00:20:54.220Z,24.27
2023-02-22T00:25:57.110Z,26.37
2023-02-22T00:30:58.881Z,24.27
2023-02-22T00:36:02.049Z,25.23
2023-02-22T00:41:04.060Z,24.37
2023-02-22T00:46:06.028Z,22.37
2023-02-22T00:51:09.369Z,24.12
2023-02-22T00:56:11.371Z,26.58
2023-02-22T01:01:13.201Z,24.65
2023-02-22T01:06:16.356Z,23.83
2023-02-22T01:11:18.704Z,24.42
2023-02-22T01:16:21.176Z,23.90
2023-02-22T01:21:24.360Z,23.98
2023-02-22T01:26:26.103Z,22.50
2023-02-22T01:31:27.895Z,24.67
2023-02-22T01:36:31.099Z,22.85
2023-02-22T01:41:33.114Z,23.75
2023-02-22T01:46:34.901Z,23.02
2023-02-22T01:51:40.491Z,24.05
2023-02-22T01:56:48.544Z,24.02
2023-02-22T02:01:50.442Z,24.30
2023-02-22T02:06:55.520Z,23.92
2023-02-22T02:11:59.010Z,24.23
2023-02-22T02:17:01.497Z,24.42
2023-02-22T02:22:34.020Z,23.20
2023-02-22T02:27:53.764Z,24.73
2023-02-22T02:33:01.734Z,23.50
2023-02-22T02:38:10.784Z,25.40
2023-02-22T02:43:17.618Z,23.77
2023-02-22T02:48:25.568Z,24.80
2023-02-22T02:53:32.986Z,23.87
2023-02-22T02:58:44.942Z,24.33
2023-02-22T03:04:13.109Z,26.12
2023-02-22T03:09:25.831Z,23.65
2023-02-22T03:14:35.396Z,22.83
2023-02-22T03:19:45.030Z,23.58
2023-02-22T03:24:52.830Z,24.87
2023-02-22T03:29:58.168Z,24.65
2023-02-22T03:35:06.283Z,25.05
2023-02-22T03:40:11.737Z,23.67
2023-02-22T03:45:15.433Z,23.77
2023-02-22T03:50:21.365Z,22.43
2023-02-22T03:55:23.186Z,25.50
2023-02-22T04:00:29.068Z,24.05
2023-02-22T04:05:32.272Z,25.30
2023-02-22T04:10:34.026Z,25.05
2023-02-22T04:15:35.702Z,26.08
2023-02-22T04:20:38.810Z,24.42
2023-02-22T04:25:40.674Z,25.10
2023-02-22T04:30:42.506Z,25.62
2023-02-22T04:35:48.554Z,29.25
2023-02-22T04:40:51.954Z,26.30
2023-02-22T04:45:53.667Z,24.80
2023-02-22T04:50:59.222Z,26.62
2023-02-22T04:56:01.033Z,25.37
2023-02-22T05:01:02.806Z,27.75
2023-02-22T05:06:06.680Z,25.83
2023-02-22T05:11:08.451Z,30.97
2023-02-22T05:16:10.340Z,30.90
2023-02-22T05:21:13.690Z,28.17
2023-02-22T05:26:15.418Z,25.77
2023-02-22T05:31:17.424Z,26.30
2023-02-22T05:36:20.655Z,23.75
2023-02-22T05:41:22.757Z,23.23
2023-02-22T05:46:24.520Z,25.73
2023-02-22T05:51:27.731Z,26.75
2023-02-22T05:56:30.158Z,24.23
2023-02-22T06:01:31.879Z,23.70
2023-02-22T06:06:34.938Z,23.50
2023-02-22T06:11:36.705Z,23.65
2023-02-22T06:16:38.477Z,24.45
2023-02-22T06:21:49.163Z,23.98
2023-02-22T06:26:55.454Z,25.42
2023-02-22T06:31:57.256Z,24.63
2023-02-22T06:37:00.559Z,24.77
2023-02-22T06:42:02.341Z,23.45
2023-02-22T06:47:04.272Z,27.85
2023-02-22T06:52:10.732Z,26.80
2023-02-22T06:57:12.639Z,28.50
2023-02-22T07:02:14.832Z,27.37
2023-02-22T07:07:18.274Z,26.70
2023-02-22T07:12:20.037Z,25.27
2023-02-22T07:17:21.733Z,27.90
2023-02-22T07:22:24.808Z,27.30
2023-02-22T07:27:26.550Z,28.33
2023-02-22T07:32:28.325Z,27.40
2023-02-22T07:37:31.440Z,27.98
2023-02-22T07:42:33.342Z,26.77
2023-02-22T07:47:35.057Z,26.90
2023-02-22T07:52:38.164Z,29.83
2023-02-22T07:57:39.840Z,29.42
2023-02-22T08:02:41.980Z,29.85
2023-02-22T08:07:45.138Z,31.20
2023-02-22T08:12:46.882Z,28.75
2023-02-22T08:17:48.579Z,28.73
2023-02-22T08:22:52.426Z,26.92
2023-02-22T08:27:57.641Z,26.40
2023-02-22T08:32:59.668Z,27.10
2023-02-22T08:38:04.658Z,26.95
2023-02-22T08:48:07.961Z,25.17
2023-02-22T08:53:12.903Z,25.17
2023-02-22T09:03:16.457Z,28.70
2023-02-22T09:08:19.701Z,27.48
2023-02-22T09:13:21.428Z,28.00
2023-02-22T09:18:23.706Z,29.80
2023-02-22T09:23:27.564Z,28.33
2023-02-22T09:28:29.385Z,30.45
2023-02-22T09:33:31.155Z,30.05
2023-02-22T09:38:34.328Z,27.37
2023-02-22T09:43:43.760Z,27.90
2023-02-22T09:48:57.423Z,30.25
2023-02-22T09:54:02.241Z,29.60
2023-02-22T09:59:07.910Z,27.77
2023-02-22T10:04:16.949Z,29.50
2023-02-22T10:09:27.431Z,27.90
2023-02-22T10:14:44.178Z,28.73
2023-02-22T10:19:56.486Z,29.67
2023-02-22T10:25:03.022Z,24.48
2023-02-22T10:30:24.145Z,25.05
2023-02-22T10:35:29.647Z,26.15
2023-02-22T10:40:32.919Z,26.80
2023-02-22T10:45:35.461Z,29.05
2023-02-22T10:50:39.958Z,26.52
2023-02-22T10:56:08.251Z,28.25
2023-02-22T11:01:21.936Z,27.92
2023-02-22T11:06:23.881Z,29.17
2023-02-22T11:11:27.104Z,26.48
2023-02-22T11:16:32.716Z,28.65
2023-02-22T11:21:37.415Z,28.85
2023-02-22T11:26:43.544Z,27.05
2023-02-22T11:31:46.943Z,26.17
2023-02-22T11:36:49.738Z,27.10
2023-02-22T11:41:58.828Z,26.10
2023-02-22T11:47:03.277Z,25.70
2023-02-22T11:52:23.295Z,25.90
2023-02-22T11:57:56.524Z,24.45
2023-02-22T12:03:40.516Z,24.37
2023-02-22T12:09:22.119Z,24.85
2023-02-22T12:19:48.927Z,24.12
2023-02-22T12:30:05.233Z,24.37
2023-02-22T12:35:40.199Z,25.85
2023-02-22T12:40:50.000Z,23.97
2023-02-22T12:46:00.330Z,25.17
2023-02-22T12:51:12.910Z,25.15
2023-02-22T12:56:22.229Z,22.83
2023-02-22T13:01:30.027Z,25.45
2023-02-22T13:06:41.377Z,24.42
2023-02-22T13:11:53.601Z,22.42
2023-02-22T13:17:03.813Z,23.50
2023-02-22T13:22:12.350Z,23.73
2023-02-22T13:27:19.246Z,23.45
2023-02-22T13:32:42.056Z,22.52
2023-02-22T13:38:00.170Z,22.13
2023-02-22T13:43:38.728Z,23.67
2023-02-22T13:49:00.394Z,24.83
2023-02-22T13:54:07.476Z,24.42
2023-02-22T13:59:24.138Z,25.60
2023-02-22T14:04:48.219Z,26.48
2023-02-22T14:09:51.329Z,26.33
2023-02-22T14:15:29.813Z,25.10
2023-02-22T14:20:35.486Z,25.45
2023-02-22T14:25:40.383Z,26.00
2023-02-22T14:31:35.403Z,26.08
2023-02-22T14:36:48.609Z,27.17
2023-02-22T14:41:57.293Z,25.98
2023-02-22T14:47:04.727Z,27.33
2023-02-22T14:52:21.251Z,26.75
2023-02-22T14:57:29.776Z,27.13
2023-02-22T15:02:42.117Z,26.48
2023-02-22T15:07:54.332Z,28.30
2023-02-22T15:12:59.922Z,27.77
2023-02-22T15:18:02.159Z,27.30
2023-02-22T15:23:08.613Z,28.48
2023-02-22T15:28:14.716Z,27.45
2023-02-22T15:33:18.790Z,26.92
2023-02-22T15:38:27.171Z,27.85
2023-02-22T15:54:54.836Z,30.98
2023-02-22T15:59:57.880Z,28.83
2023-02-22T16:05:04.028Z,29.58
2023-02-22T16:10:07.872Z,28.48
2023-02-22T16:15:25.434Z,27.98
2023-02-22T16:21:03.789Z,30.98
2023-02-22T16:26:21.719Z,29.37
2023-02-22T16:37:23.760Z,26.33
2023-02-22T16:42:26.919Z,28.27
2023-02-22T16:47:28.653Z,25.52
2023-02-22T16:52:31.204Z,28.85
2023-02-22T16:57:34.272Z,29.27
2023-02-22T17:02:35.991Z,29.00
2023-02-22T17:07:37.729Z,27.37
2023-02-22T17:18:31.813Z,28.87
2023-02-22T17:23:33.742Z,28.92
2023-02-22T17:34:25.652Z,27.62
2023-02-22T17:39:27.780Z,27.70
2023-02-22T17:44:30.169Z,28.17
2023-02-22T17:49:34.783Z,30.12
2023-02-22T17:54:38.871Z,28.95
2023-02-22T17:59:40.745Z,30.47
2023-02-22T18:04:44.023Z,28.67
2023-02-22T18:09:45.918Z,27.92
2023-02-22T18:14:49.885Z,30.20
2023-02-22T18:19:53.041Z,31.35
2023-02-22T18:24:58.428Z,31.05
2023-02-22T18:30:02.322Z,30.50
2023-02-22T18:35:09.473Z,30.52
2023-02-22T18:40:11.382Z,30.80
2023-02-22T18:45:13.259Z,33.70
2023-02-22T18:50:16.801Z,29.67
2023-02-22T18:55:20.217Z,30.88
2023-02-22T19:00:22.194Z,34.08
2023-02-22T19:05:25.381Z,33.67
2023-02-22T19:10:27.326Z,34.25
2023-02-22T19:15:29.140Z,34.88
2023-02-22T19:20:32.347Z,34.83
2023-02-22T19:25:38.802Z,35.60
2023-02-22T19:30:40.738Z,32.78
2023-02-22T19:35:43.950Z,35.90
2023-02-22T19:40:45.800Z,38.40
2023-02-22T19:45:47.570Z,38.97
2023-02-22T19:50:50.681Z,36.88
2023-02-22T19:56:15.723Z,38.25
2023-02-22T20:01:22.312Z,34.95
2023-02-22T20:06:55.755Z,31.08
2023-02-22T20:11:57.714Z,34.33
2023-02-22T20:16:59.662Z,34.20
2023-02-22T20:22:03.270Z,33.17
2023-02-22T20:27:05.029Z,36.13
2023-02-22T20:32:11.664Z,35.03
2023-02-22T20:37:14.131Z,39.33
2023-02-22T20:42:17.472Z,36.30
2023-02-22T20:47:21.327Z,35.85
2023-02-22T20:53:01.808Z,34.78
2023-02-22T20:58:04.988Z,32.05
2023-02-22T21:03:06.770Z,33.25
2023-02-22T21:08:08.528Z,33.90
2023-02-22T21:13:12.285Z,37.22
2023-02-22T21:18:14.802Z,34.63
2023-02-22T21:23:16.557Z,34.33
2023-02-22T21:28:19.692Z,32.55
2023-02-22T21:33:21.469Z,33.67
2023-02-22T21:38:23.339Z,35.28
2023-02-22T21:43:26.548Z,31.30
2023-02-22T21:48:28.512Z,32.78
2023-02-22T21:53:33.401Z,34.40
2023-02-22T21:58:39.347Z,37.22
2023-02-22T22:03:41.405Z,35.33
2023-02-22T22:08:43.520Z,34.38
2023-02-22T22:13:47.153Z,34.60
2023-02-22T22:24:07.105Z,35.15
2023-02-22T22:29:10.333Z,37.92
2023-02-22T22:34:12.316Z,39.70
2023-02-22T22:39:14.444Z,36.10
2023-02-22T22:49:58.556Z,34.30
2023-02-22T22:55:00.476Z,35.22
2023-02-22T23:00:07.205Z,33.20
2023-02-22T23:05:09.291Z,35.92
2023-02-22T23:10:11.493Z,32.58
2023-02-22T23:15:14.625Z,32.60
2023-02-22T23:20:16.552Z,31.40
2023-02-22T23:25:18.828Z,31.15
2023-02-22T23:30:22.296Z,33.35
2023-02-22T23:35:24.106Z,33.53
2023-02-22T23:40:26.738Z,31.42
2023-02-22T23:45:30.115Z,31.30
2023-02-22T23:50:32.123Z,30.80
2023-02-22T23:55:34.019Z,32.88
